Tamara — HOEH — position and weather

sailwx.info

Track history (hours):
 
Tides and Currents Weather Stations Pressure Air Temp Water Temp Dewpoint Dewpoint Depression Visibility Wind Speed Wind Dir Waves Ship Positions

Tamara

Last reported at 2016-Feb-08 17:32 UTC. Time now 2016-Feb-11 21:12 UTC.
Position N 34°17' E 033°08'.

Length 117 m; draft 5.5 m.

Type: Ship (hazmat cat A). MMSI: 353900000.

Date/timePositionNaut miles runAvg speedWind from/ knotsBaromVisibWave heightAir tempDewpointWater temp
2016-Feb-08 17:32N 34°17' E 033°08'1414.3
2016-Feb-08 16:33N 34°26' E 033°21'  
2016-Feb-05 22:14N 34°26' E 033°32'2 1.6
2016-Feb-05 21:13N 34°25' E 033°30'5 6.9
2016-Feb-05 20:33N 34°30' E 033°29'5 3.4
2016-Feb-05 19:04N 34°34' E 033°25'1 1.5
2016-Feb-05 18:25N 34°33' E 033°25'1 1.4
2016-Feb-05 17:28N 34°31' E 033°24'1 1.2
2016-Feb-05 16:31N 34°30' E 033°24'1 1.1
2016-Feb-05 15:31N 34°30' E 033°23'1 1.0
2016-Feb-05 14:28N 34°29' E 033°23'1 0.9
2016-Feb-05 13:31N 34°28' E 033°22'1 1.0
2016-Feb-05 12:28N 34°27' E 033°23'1 0.9
2016-Feb-05 11:31N 34°26' E 033°23'1 1.0
2016-Feb-05 10:31N 34°25' E 033°23'2 1.9
2016-Feb-05 09:33N 34°24' E 033°25'  
2016-Feb-02 08:16N 34°21' E 033°10'1014.0
2016-Feb-02 07:33N 34°20' E 032°58'  
Track history (hours):
 
Tides and Currents Weather Stations Pressure Air Temp Water Temp Dewpoint Dewpoint Depression Visibility Wind Speed Wind Dir Waves Ship Positions

Tamara

Last reported at 2016-Feb-08 17:32 UTC. Time now 2016-Feb-11 21:12 UTC.
Position N 34°17' E 033°08'.

Length 117 m; draft 5.5 m.

Type: Ship (hazmat cat A). MMSI: 353900000.

Date/timePositionNaut miles runAvg speedWind from/ knotsBaromVisibWave heightAir tempDewpointWater temp
2016-Feb-08 17:32N 34°17' E 033°08'1414.3
2016-Feb-08 16:33N 34°26' E 033°21'  
2016-Feb-05 22:14N 34°26' E 033°32'2 1.6
2016-Feb-05 21:13N 34°25' E 033°30'5 6.9
2016-Feb-05 20:33N 34°30' E 033°29'5 3.4
2016-Feb-05 19:04N 34°34' E 033°25'1 1.5
2016-Feb-05 18:25N 34°33' E 033°25'1 1.4
2016-Feb-05 17:28N 34°31' E 033°24'1 1.2
2016-Feb-05 16:31N 34°30' E 033°24'1 1.1
2016-Feb-05 15:31N 34°30' E 033°23'1 1.0
2016-Feb-05 14:28N 34°29' E 033°23'1 0.9
2016-Feb-05 13:31N 34°28' E 033°22'1 1.0
2016-Feb-05 12:28N 34°27' E 033°23'1 0.9
2016-Feb-05 11:31N 34°26' E 033°23'1 1.0
2016-Feb-05 10:31N 34°25' E 033°23'2 1.9
2016-Feb-05 09:33N 34°24' E 033°25'  
2016-Feb-02 08:16N 34°21' E 033°10'1014.0
2016-Feb-02 07:33N 34°20' E 032°58'  

Dump ship's entire track history